Time;durP1;ratioP1;P1;durP2;ratioP2;P2;SDS_P1;SDS_P2;PMS_P1;PMS_P2;Temp;Humidity;BMP_temperature;BMP_pressure;BME280_temperature;BME280_humidity;BME280_pressure;Samples;Min_cycle;Max_cycle;Signal;HPM_P1;HPM_P2
2021/10/14 00:01:00;;;;;;;;;;;;;;;;;;5050172;28;19931;-70
2021/10/14 00:03:27;;;;;;;;;;;;;;;;;;5047156;28;20391;-71
2021/10/14 00:05:54;;;;;;;;;;;;;;;;;;5055951;28;20380;-69
2021/10/14 00:08:21;;;;;;;;;;;;;;;;;;5053905;28;20282;-68
2021/10/14 00:10:48;;;;;;;;;;;;;;;;;;5057795;28;19924;-71
2021/10/14 00:13:15;;;;;;;;;;;;;;;;;;5062315;28;19925;-69
2021/10/14 00:15:42;;;;;;;;;;;;;;;;;;5055433;28;19931;-69
2021/10/14 00:18:09;;;;;;;;;;;;;;;;;;5052318;28;19924;-69
2021/10/14 00:20:36;;;;;;;;;;;;;;;;;;5054439;28;20023;-68
2021/10/14 00:23:03;;;;;;;;;;;;;;;;;;5053592;28;19925;-72
2021/10/14 00:25:30;;;;;;;;;;;;;;;;;;5054912;28;20406;-70
2021/10/14 00:27:57;;;;;;;;;;;;;;;;;;5056079;28;20140;-70
2021/10/14 00:30:24;;;;;;;;;;;;;;;;;;5063219;28;19929;-71
2021/10/14 00:32:50;;;;;;;;;;;;;;;;;;5052646;28;20197;-70
2021/10/14 00:35:17;;;;;;;;;;;;;;;;;;5051373;28;20381;-71
2021/10/14 00:37:44;;;;;;;;;;;;;;;;;;5056451;28;19925;-71
2021/10/14 00:40:11;;;;;;;;;;;;;;;;;;5059470;28;19932;-70
2021/10/14 00:42:38;;;;;;;;;;;;;;;;;;5053625;28;19924;-70
2021/10/14 00:45:05;;;;;;;;;;;;;;;;;;5053372;28;19929;-70
2021/10/14 00:47:32;;;;;;;;;;;;;;;;;;5054512;28;19935;-70
2021/10/14 00:49:59;;;;;;;;;;;;;;;;;;5055212;28;19931;-71
2021/10/14 00:52:26;;;;;;;;;;;;;;;;;;5059698;28;19928;-70
2021/10/14 00:54:55;;;;;;;;;;;;;;;;;;5056932;28;19925;-70
2021/10/14 00:57:22;;;;;;;;;;;;;;;;;;5056919;28;19962;-70
2021/10/14 00:59:49;;;;;;;;;;;;;;;;;;5058537;28;19924;-70
2021/10/14 01:02:16;;;;;;;;;;;;;;;;;;5053794;28;19928;-70
2021/10/14 01:04:43;;;;;;;;;;;;;;;;;;5057748;28;19925;-71
2021/10/14 01:07:10;;;;;;;;;;;;;;;;;;5051934;28;19999;-71
2021/10/14 01:09:38;;;;;;;;;;;;;;;;;;5058502;28;19925;-71
2021/10/14 01:12:05;;;;;;;;;;;;;;;;;;5049578;28;19929;-71
2021/10/14 01:14:32;;;;;;;;;;;;;;;;;;5052010;28;19978;-71
2021/10/14 01:16:59;;;;;;;;;;;;;;;;;;5058848;28;20408;-71
2021/10/14 01:19:26;;;;;;;;;;;;;;;;;;5055582;28;19933;-70
2021/10/14 01:21:53;;;;;;;;;;;;;;;;;;5052402;28;20373;-71
2021/10/14 01:24:20;;;;;;;;;;;;;;;;;;5055159;28;20019;-71
2021/10/14 01:26:47;;;;;;;;;;;;;;;;;;5054390;28;19931;-70
2021/10/14 01:29:14;;;;;;;;;;;;;;;;;;5052117;28;19925;-70
2021/10/14 01:31:41;;;;;;;;;;;;;;;;;;5048701;28;19947;-70
2021/10/14 01:34:08;;;;;;;;;;;;;;;;;;5051823;28;19932;-71
2021/10/14 01:36:35;;;;;;;;;;;;;;;;;;5058498;28;19928;-71
2021/10/14 01:39:02;;;;;;;;;;;;;;;;;;5056314;28;20396;-71
2021/10/14 01:41:29;;;;;;;;;;;;;;;;;;5054709;28;19929;-70
2021/10/14 01:43:56;;;;;;;;;;;;;;;;;;5052113;28;19924;-71
2021/10/14 01:46:23;;;;;;;;;;;;;;;;;;5053495;28;19964;-71
2021/10/14 01:48:50;;;;;;;;;;;;;;;;;;5059454;28;19971;-70
2021/10/14 01:51:17;;;;;;;;;;;;;;;;;;5053144;28;19936;-70
2021/10/14 01:53:44;;;;;;;;;;;;;;;;;;5054147;28;19925;-71
2021/10/14 01:56:11;;;;;;;;;;;;;;;;;;5052719;28;19933;-70
2021/10/14 01:58:38;;;;;;;;;;;;;;;;;;5055602;28;20392;-71
2021/10/14 02:01:05;;;;;;;;;;;;;;;;;;5058827;28;20236;-71
2021/10/14 02:03:32;;;;;;;;;;;;;;;;;;5051681;28;19924;-70
2021/10/14 02:05:59;;;;;;;;;;;;;;;;;;5052494;28;19931;-68
2021/10/14 02:08:26;;;;;;;;;;;;;;;;;;5055694;28;20372;-69
2021/10/14 02:10:53;;;;;;;;;;;;;;;;;;5054683;28;19925;-69
2021/10/14 02:13:20;;;;;;;;;;;;;;;;;;5049319;28;19931;-70
2021/10/14 02:15:47;;;;;;;;;;;;;;;;;;5049998;28;19980;-68
2021/10/14 02:18:14;;;;;;;;;;;;;;;;;;5049723;28;19932;-70
2021/10/14 02:20:41;;;;;;;;;;;;;;;;;;5046216;28;20376;-69
2021/10/14 02:23:08;;;;;;;;;;;;;;;;;;5050213;28;19988;-68
2021/10/14 02:25:35;;;;;;;;;;;;;;;;;;5047658;28;19925;-70
2021/10/14 02:28:02;;;;;;;;;;;;;;;;;;5053268;28;19925;-71
2021/10/14 02:30:29;;;;;;;;;;;;;;;;;;5049829;28;19961;-69
2021/10/14 02:32:55;;;;;;;;;;;;;;;;;;5049446;28;20347;-69
2021/10/14 02:35:22;;;;;;;;;;;;;;;;;;5052870;28;19935;-70
2021/10/14 02:37:49;;;;;;;;;;;;;;;;;;5054150;28;19925;-68
2021/10/14 02:40:16;;;;;;;;;;;;;;;;;;5055596;28;19959;-69
2021/10/14 02:42:43;;;;;;;;;;;;;;;;;;5055210;28;20007;-71
2021/10/14 02:45:10;;;;;;;;;;;;;;;;;;5052631;28;19986;-69
2021/10/14 02:47:37;;;;;;;;;;;;;;;;;;5050869;28;20209;-68
2021/10/14 02:50:04;;;;;;;;;;;;;;;;;;5055208;28;19983;-69
2021/10/14 02:52:31;;;;;;;;;;;;;;;;;;5057388;28;19931;-69
2021/10/14 02:54:58;;;;;;;;;;;;;;;;;;5052603;28;20004;-69
2021/10/14 02:57:25;;;;;;;;;;;;;;;;;;5053784;28;19925;-68
2021/10/14 02:59:52;;;;;;;;;;;;;;;;;;5050377;28;19925;-71
2021/10/14 03:02:19;;;;;;;;;;;;;;;;;;5055974;28;19925;-67
2021/10/14 03:04:45;;;;;;;;;;;;;;;;;;5052321;28;19929;-68
2021/10/14 03:07:12;;;;;;;;;;;;;;;;;;5049563;28;19998;-69
2021/10/14 03:09:39;;;;;;;;;;;;;;;;;;5045646;28;19929;-71
2021/10/14 03:12:06;;;;;;;;;;;;;;;;;;5045609;28;19935;-70
2021/10/14 03:14:33;;;;;;;;;;;;;;;;;;5051749;28;20292;-71
2021/10/14 03:17:00;;;;;;;;;;;;;;;;;;5054819;28;19925;-68
2021/10/14 03:19:27;;;;;;;;;;;;;;;;;;5050482;28;19925;-68
2021/10/14 03:21:54;;;;;;;;;;;;;;;;;;5049338;28;20269;-67
2021/10/14 03:24:21;;;;;;;;;;;;;;;;;;5047340;28;19925;-70
2021/10/14 03:26:48;;;;;;;;;;;;;;;;;;5043428;28;19929;-70
2021/10/14 03:29:15;;;;;;;;;;;;;;;;;;5056670;28;20300;-70
2021/10/14 03:31:41;;;;;;;;;;;;;;;;;;5051193;28;19931;-70
2021/10/14 03:34:08;;;;;;;;;;;;;;;;;;5052673;28;19931;-70
2021/10/14 03:36:35;;;;;;;;;;;;;;;;;;5054418;28;19933;-70
2021/10/14 03:39:02;;;;;;;;;;;;;;;;;;5052742;28;19925;-71
2021/10/14 03:41:29;;;;;;;;;;;;;;;;;;5054951;28;20348;-70
2021/10/14 03:43:56;;;;;;;;;;;;;;;;;;5088136;22;19924;-60
2021/10/14 03:46:23;;;;;;;;;;;;;;;;;;5093460;28;19950;-60
2021/10/14 03:48:50;;;;;;;;;;;;;;;;;;5101408;28;19924;-63
2021/10/14 03:51:17;;;;;;;;;;;;;;;;;;5092396;28;19924;-60
2021/10/14 03:53:44;;;;;;;;;;;;;;;;;;5103950;28;19924;-61
2021/10/14 03:56:11;;;;;;;;;;;;;;;;;;5094931;28;20355;-65
2021/10/14 03:58:38;;;;;;;;;;;;;;;;;;5104756;28;20015;-60
2021/10/14 04:01:04;;;;;;;;;;;;;;;;;;5104951;28;20206;-62
2021/10/14 04:03:31;;;;;;;;;;;;;;;;;;5099804;28;19930;-61
2021/10/14 04:05:58;;;;;;;;;;;;;;;;;;5095867;28;19925;-61
2021/10/14 04:08:25;;;;;;;;;;;;;;;;;;5094090;28;19934;-61
2021/10/14 04:10:52;;;;;;;;;;;;;;;;;;5100489;28;19928;-61
2021/10/14 04:13:19;;;;;;;;;;;;;;;;;;5102503;28;19936;-60
2021/10/14 04:15:47;;;;;;;;;;;;;;;;;;5106410;28;19928;-62
2021/10/14 04:18:14;;;;;;;;;;;;;;;;;;5099485;28;19924;-62
2021/10/14 04:20:41;;;;;;;;;;;;;;;;;;5102828;28;19931;-62
2021/10/14 04:23:08;;;;;;;;;;;;;;;;;;5101859;28;20384;-62
2021/10/14 04:25:35;;;;;;;;;;;;;;;;;;5104223;28;19928;-62
2021/10/14 04:28:02;;;;;;;;;;;;;;;;;;5115551;28;19999;-62
2021/10/14 04:30:29;;;;;;;;;;;;;;;;;;5104409;28;19924;-62
2021/10/14 04:32:56;;;;;;;;;;;;;;;;;;5100197;28;19928;-62
2021/10/14 04:35:23;;;;;;;;;;;;;;;;;;5095643;28;19930;-62
2021/10/14 04:37:50;;;;;;;;;;;;;;;;;;5105516;28;19924;-62
2021/10/14 04:40:17;;;;;;;;;;;;;;;;;;5107619;28;19928;-62
2021/10/14 04:42:44;;;;;;;;;;;;;;;;;;5107637;28;19939;-61
2021/10/14 04:45:11;;;;;;;;;;;;;;;;;;5105528;28;19931;-61
2021/10/14 04:47:38;;;;;;;;;;;;;;;;;;5106651;28;19930;-61
2021/10/14 04:50:05;;;;;;;;;;;;;;;;;;5101678;28;19934;-62
2021/10/14 04:52:32;;;;;;;;;;;;;;;;;;5105771;28;19938;-61
2021/10/14 04:54:59;;;;;;;;;;;;;;;;;;5097273;28;19930;-62
2021/10/14 04:57:27;;;;;;;;;;;;;;;;;;5104065;28;19934;-62
2021/10/14 04:59:53;;;;;;;;;;;;;;;;;;5105989;28;19924;-62
2021/10/14 05:02:20;;;;;;;;;;;;;;;;;;5098303;28;19931;-61
2021/10/14 05:04:47;;;;;;;;;;;;;;;;;;5100693;28;20014;-57
2021/10/14 05:07:14;;;;;;;;;;;;;;;;;;5092535;28;19931;-60
2021/10/14 05:09:41;;;;;;;;;;;;;;;;;;5095566;28;20028;-60
2021/10/14 05:12:08;;;;;;;;;;;;;;;;;;5093906;28;19946;-60
2021/10/14 05:14:35;;;;;;;;;;;;;;;;;;5098339;28;20285;-60
2021/10/14 05:17:02;;;;;;;;;;;;;;;;;;5094324;28;20008;-60
2021/10/14 05:19:29;;;;;;;;;;;;;;;;;;5095988;28;19924;-61
2021/10/14 05:21:56;;;;;;;;;;;;;;;;;;5098343;28;20575;-60
2021/10/14 05:24:23;;;;;;;;;;;;;;;;;;5085550;28;21558;-60
2021/10/14 05:26:50;;;;;;;;;;;;;;;;;;5093817;28;19924;-61
2021/10/14 05:29:17;;;;;;;;;;;;;;;;;;5091259;28;19934;-60
2021/10/14 05:31:43;;;;;;;;;;;;;;;;;;5091834;28;20295;-60
2021/10/14 05:34:10;;;;;;;;;;;;;;;;;;5092033;28;19924;-59
2021/10/14 05:36:37;;;;;;;;;;;;;;;;;;5091113;28;19931;-61
2021/10/14 05:39:04;;;;;;;;;;;;;;;;;;5085559;28;20260;-61
2021/10/14 05:41:31;;;;;;;;;;;;;;;;;;5086280;28;19924;-61
2021/10/14 05:43:58;;;;;;;;;;;;;;;;;;5088567;28;19924;-60
2021/10/14 05:46:25;;;;;;;;;;;;;;;;;;5086240;28;20387;-57
2021/10/14 05:48:52;;;;;;;;;;;;;;;;;;5086996;28;19931;-59
2021/10/14 05:51:19;;;;;;;;;;;;;;;;;;5092031;28;20033;-61
2021/10/14 05:53:46;;;;;;;;;;;;;;;;;;5088283;28;19955;-62
2021/10/14 05:56:13;;;;;;;;;;;;;;;;;;5091599;28;19928;-60
2021/10/14 05:58:40;;;;;;;;;;;;;;;;;;5090460;28;20018;-60
2021/10/14 06:01:07;;;;;;;;;;;;;;;;;;5088554;28;19924;-59
2021/10/14 06:03:33;;;;;;;;;;;;;;;;;;5090954;28;19924;-59
2021/10/14 06:06:00;;;;;;;;;;;;;;;;;;5091958;28;19924;-60
2021/10/14 06:08:27;;;;;;;;;;;;;;;;;;5097748;28;19924;-59
2021/10/14 06:10:54;;;;;;;;;;;;;;;;;;5087264;28;19924;-54
2021/10/14 06:13:21;;;;;;;;;;;;;;;;;;5090768;28;19931;-60
2021/10/14 06:15:48;;;;;;;;;;;;;;;;;;5089578;28;19928;-57
2021/10/14 06:18:15;;;;;;;;;;;;;;;;;;5089468;28;19927;-59
2021/10/14 06:20:42;;;;;;;;;;;;;;;;;;5095932;28;19928;-61
2021/10/14 06:23:09;;;;;;;;;;;;;;;;;;5100628;28;19931;-61
2021/10/14 06:25:36;;;;;;;;;;;;;;;;;;5106646;28;19928;-61
2021/10/14 06:28:03;;;;;;;;;;;;;;;;;;5105532;28;20061;-60
2021/10/14 06:30:32;;;;;;;;;;;;;;;;;;5106053;28;19924;-60
2021/10/14 06:32:59;;;;;;;;;;;;;;;;;;5106881;28;19973;-61
2021/10/14 06:35:26;;;;;;;;;;;;;;;;;;5107864;28;19970;-60
2021/10/14 06:37:53;;;;;;;;;;;;;;;;;;5104961;28;20348;-61
2021/10/14 06:40:20;;;;;;;;;;;;;;;;;;5101910;28;19928;-60
2021/10/14 06:42:47;;;;;;;;;;;;;;;;;;5106325;28;20010;-60
2021/10/14 06:45:14;;;;;;;;;;;;;;;;;;5098876;28;19960;-61
2021/10/14 06:47:41;;;;;;;;;;;;;;;;;;5105947;28;19991;-60
2021/10/14 06:50:08;;;;;;;;;;;;;;;;;;5103827;28;19931;-60
2021/10/14 06:52:35;;;;;;;;;;;;;;;;;;5100133;28;20007;-61
2021/10/14 06:55:02;;;;;;;;;;;;;;;;;;5105542;28;20360;-61
2021/10/14 06:57:29;;;;;;;;;;;;;;;;;;5102943;28;19931;-61
2021/10/14 06:59:56;;;;;;;;;;;;;;;;;;5106592;28;19978;-61
2021/10/14 07:02:23;;;;;;;;;;;;;;;;;;5105457;28;19971;-61
2021/10/14 07:04:50;;;;;;;;;;;;;;;;;;5108120;28;19924;-60
2021/10/14 07:07:17;;;;;;;;;;;;;;;;;;5104521;28;19928;-60
2021/10/14 07:09:43;;;;;;;;;;;;;;;;;;5106165;28;20018;-61
2021/10/14 07:12:11;;;;;;;;;;;;;;;;;;5099968;28;19935;-60
2021/10/14 07:14:38;;;;;;;;;;;;;;;;;;5106203;28;19946;-60
2021/10/14 07:17:05;;;;;;;;;;;;;;;;;;5105120;28;19930;-60
2021/10/14 07:19:32;;;;;;;;;;;;;;;;;;5106059;28;19924;-61
2021/10/14 07:21:59;;;;;;;;;;;;;;;;;;5100345;28;19968;-60
2021/10/14 07:24:27;;;;;;;;;;;;;;;;;;5103061;28;19987;-61
2021/10/14 07:26:54;;;;;;;;;;;;;;;;;;5104870;28;19963;-60
2021/10/14 07:29:21;;;;;;;;;;;;;;;;;;5106286;28;19924;-60
2021/10/14 07:31:48;;;;;;;;;;;;;;;;;;5100503;28;19924;-61
2021/10/14 07:34:15;;;;;;;;;;;;;;;;;;5105221;28;19964;-61
2021/10/14 07:36:42;;;;;;;;;;;;;;;;;;5099371;28;20157;-62
2021/10/14 07:39:09;;;;;;;;;;;;;;;;;;5100214;28;19912;-60
2021/10/14 07:41:36;;;;;;;;;;;;;;;;;;5105495;28;19950;-61
2021/10/14 07:44:03;;;;;;;;;;;;;;;;;;5103403;28;20298;-59
2021/10/14 07:46:30;;;;;;;;;;;;;;;;;;5102946;28;19947;-61
2021/10/14 07:48:57;;;;;;;;;;;;;;;;;;5102453;28;19924;-61
2021/10/14 07:51:24;;;;;;;;;;;;;;;;;;5104906;28;20019;-60
2021/10/14 07:53:51;;;;;;;;;;;;;;;;;;5098339;28;19924;-61
2021/10/14 07:56:18;;;;;;;;;;;;;;;;;;5103705;28;19932;-61
2021/10/14 07:58:45;;;;;;;;;;;;;;;;;;5107022;28;19959;-61
2021/10/14 08:01:12;;;;;;;;;;;;;;;;;;5100598;28;19931;-60
2021/10/14 08:03:39;;;;;;;;;;;;;;;;;;5104448;28;19966;-60
2021/10/14 08:06:06;;;;;;;;;;;;;;;;;;5103837;28;19930;-61
2021/10/14 08:08:33;;;;;;;;;;;;;;;;;;5104666;28;19987;-62
2021/10/14 08:11:00;;;;;;;;;;;;;;;;;;5107414;28;20472;-59
2021/10/14 08:13:27;;;;;;;;;;;;;;;;;;5110237;28;19946;-59
2021/10/14 08:15:54;;;;;;;;;;;;;;;;;;5106408;28;19970;-62
2021/10/14 08:18:21;;;;;;;;;;;;;;;;;;5105972;28;19925;-62
2021/10/14 08:20:48;;;;;;;;;;;;;;;;;;5107071;28;19928;-61
2021/10/14 08:23:16;;;;;;;;;;;;;;;;;;5107729;28;19908;-61
2021/10/14 08:25:43;;;;;;;;;;;;;;;;;;5102748;28;19924;-60
2021/10/14 08:28:10;;;;;;;;;;;;;;;;;;5103713;28;20117;-61
2021/10/14 08:30:37;;;;;;;;;;;;;;;;;;5104930;28;19924;-60
2021/10/14 08:33:04;;;;;;;;;;;;;;;;;;5104465;28;19963;-61
2021/10/14 08:35:35;;;;;;;;;;;;;;;;;;5106483;28;19924;-60
2021/10/14 08:38:02;;;;;;;;;;;;;;;;;;5101776;28;19924;-60
2021/10/14 08:40:29;;;;;;;;;;;;;;;;;;5099821;28;19929;-61
2021/10/14 08:42:56;;;;;;;;;;;;;;;;;;5104125;28;20018;-61
2021/10/14 08:45:23;;;;;;;;;;;;;;;;;;5106463;28;19931;-61
2021/10/14 08:47:50;;;;;;;;;;;;;;;;;;5106941;28;19923;-61
2021/10/14 08:50:17;;;;;;;;;;;;;;;;;;5106494;28;19924;-61
2021/10/14 08:52:44;;;;;;;;;;;;;;;;;;5099332;28;19931;-61
2021/10/14 08:55:11;;;;;;;;;;;;;;;;;;5096075;28;20015;-60
2021/10/14 08:57:38;;;;;;;;;;;;;;;;;;5105262;28;19984;-61
2021/10/14 09:00:05;;;;;;;;;;;;;;;;;;5103322;28;19979;-61
2021/10/14 09:02:33;;;;;;;;;;;;;;;;;;5100834;28;19925;-61
2021/10/14 09:05:02;;;;;;;;;;;;;;;;;;5106905;28;19931;-60
2021/10/14 09:07:29;;;;;;;;;;;;;;;;;;5099592;28;19924;-62
2021/10/14 09:09:56;;;;;;;;;;;;;;;;;;5106828;28;19962;-61
2021/10/14 09:12:23;;;;;;;;;;;;;;;;;;5104398;28;19932;-61
2021/10/14 09:14:50;;;;;;;;;;;;;;;;;;5104547;28;19924;-60
2021/10/14 09:17:17;;;;;;;;;;;;;;;;;;5106147;28;20350;-61
2021/10/14 09:19:44;;;;;;;;;;;;;;;;;;5102650;28;19956;-61
2021/10/14 09:22:12;;;;;;;;;;;;;;;;;;5096194;28;20435;-62
2021/10/14 09:24:39;;;;;;;;;;;;;;;;;;5096793;28;19924;-61
2021/10/14 09:27:06;;;;;;;;;;;;;;;;;;5100454;28;19928;-60
2021/10/14 09:29:34;;;;;;;;;;;;;;;;;;5106751;28;19924;-61
2021/10/14 09:32:01;;;;;;;;;;;;;;;;;;5108445;28;19924;-59
2021/10/14 09:34:28;;;;;;;;;;;;;;;;;;5107586;28;19924;-59
2021/10/14 09:36:55;;;;;;;;;;;;;;;;;;5107333;28;19924;-60
2021/10/14 09:39:22;;;;;;;;;;;;;;;;;;5099777;28;20007;-60
2021/10/14 09:41:49;;;;;;;;;;;;;;;;;;5106391;28;19974;-61
2021/10/14 09:44:17;;;;;;;;;;;;;;;;;;5091878;22;19971;-59
2021/10/14 09:46:44;;;;;;;;;;;;;;;;;;5060891;28;19937;-60
2021/10/14 09:49:11;;;;;;;;;;;;;;;;;;5071771;28;19961;-60
2021/10/14 09:51:38;;;;;;;;;;;;;;;;;;5065579;28;20386;-60
2021/10/14 09:54:05;;;;;;;;;;;;;;;;;;5047599;28;19925;-60
2021/10/14 09:56:32;;;;;;;;;;;;;;;;;;5044977;28;19925;-60
2021/10/14 09:59:01;;;;;;;;;;;;;;;;;;5040611;28;19936;-60
2021/10/14 10:01:28;;;;;;;;;;;;;;;;;;5048599;28;20055;-60
2021/10/14 10:03:55;;;;;;;;;;;;;;;;;;5052054;28;20388;-59
2021/10/14 10:06:22;;;;;;;;;;;;;;;;;;5053839;28;20105;-58
2021/10/14 10:08:49;;;;;;;;;;;;;;;;;;5055896;28;20199;-59
2021/10/14 10:11:16;;;;;;;;;;;;;;;;;;5047560;28;19924;-58
2021/10/14 10:13:43;;;;;;;;;;;;;;;;;;5040173;28;19931;-60
2021/10/14 10:16:10;;;;;;;;;;;;;;;;;;5053332;28;19932;-60
2021/10/14 10:18:42;;;;;;;;;;;;;;;;;;5049788;28;19932;-60
2021/10/14 10:21:10;;;;;;;;;;;;;;;;;;5039885;28;19931;-60
2021/10/14 10:23:37;;;;;;;;;;;;;;;;;;5045993;28;19929;-60
2021/10/14 10:26:04;;;;;;;;;;;;;;;;;;5052075;28;19933;-60
2021/10/14 10:28:31;;;;;;;;;;;;;;;;;;5036318;28;19928;-59
2021/10/14 10:30:58;;;;;;;;;;;;;;;;;;5046472;28;19925;-60
2021/10/14 10:33:25;;;;;;;;;;;;;;;;;;5038784;28;19968;-59
2021/10/14 10:35:52;;;;;;;;;;;;;;;;;;5050047;28;19931;-59
2021/10/14 10:38:19;;;;;;;;;;;;;;;;;;5050784;28;19925;-61
2021/10/14 10:40:46;;;;;;;;;;;;;;;;;;5049571;28;20401;-59
2021/10/14 10:43:13;;;;;;;;;;;;;;;;;;5047102;28;20300;-61
2021/10/14 10:45:40;;;;;;;;;;;;;;;;;;5034689;28;19964;-61
2021/10/14 10:48:07;;;;;;;;;;;;;;;;;;5051071;28;20288;-61
2021/10/14 10:50:34;;;;;;;;;;;;;;;;;;5044498;28;19924;-59
2021/10/14 10:53:01;;;;;;;;;;;;;;;;;;5046119;28;19931;-60
2021/10/14 10:55:28;;;;;;;;;;;;;;;;;;5048122;28;19932;-60
2021/10/14 10:57:55;;;;;;;;;;;;;;;;;;5049072;28;19939;-60
2021/10/14 11:00:21;;;;;;;;;;;;;;;;;;5052110;28;19929;-60
2021/10/14 11:02:48;;;;;;;;;;;;;;;;;;5046326;28;19925;-59
2021/10/14 11:05:17;;;;;;;;;;;;;;;;;;5046092;28;19925;-60
2021/10/14 11:07:44;;;;;;;;;;;;;;;;;;5047685;28;20378;-60
2021/10/14 11:10:10;;;;;;;;;;;;;;;;;;5046623;28;19924;-60
2021/10/14 11:12:37;;;;;;;;;;;;;;;;;;5050287;28;19931;-60
2021/10/14 11:15:04;;;;;;;;;;;;;;;;;;5043342;28;19936;-59
2021/10/14 11:17:33;;;;;;;;;;;;;;;;;;5049101;28;20285;-59
2021/10/14 11:20:00;;;;;;;;;;;;;;;;;;5044259;28;20301;-59
2021/10/14 11:22:27;;;;;;;;;;;;;;;;;;5047602;28;19926;-59
2021/10/14 11:24:55;;;;;;;;;;;;;;;;;;5048527;28;19931;-60
2021/10/14 11:27:23;;;;;;;;;;;;;;;;;;5050493;28;19925;-60
2021/10/14 11:29:51;;;;;;;;;;;;;;;;;;5051118;28;19932;-59
2021/10/14 11:32:22;;;;;;;;;;;;;;;;;;5047985;28;19932;-60
2021/10/14 11:34:49;;;;;;;;;;;;;;;;;;5049968;28;19947;-59
2021/10/14 11:37:17;;;;;;;;;;;;;;;;;;5044426;28;20372;-59
2021/10/14 11:39:44;;;;;;;;;;;;;;;;;;5047120;28;20384;-59
2021/10/14 11:42:11;;;;;;;;;;;;;;;;;;5041070;28;19992;-58
2021/10/14 11:44:38;;;;;;;;;;;;;;;;;;5043264;28;19936;-59
2021/10/14 11:47:06;;;;;;;;;;;;;;;;;;5049812;28;19933;-59
2021/10/14 11:49:33;;;;;;;;;;;;;;;;;;5047267;28;19929;-59
2021/10/14 11:52:00;;;;;;;;;;;;;;;;;;5043149;28;19992;-59
2021/10/14 11:54:27;;;;;;;;;;;;;;;;;;5053498;28;19932;-60
2021/10/14 11:56:54;;;;;;;;;;;;;;;;;;5054411;28;19924;-59
2021/10/14 11:59:21;;;;;;;;;;;;;;;;;;5046928;28;19944;-59
2021/10/14 12:01:48;;;;;;;;;;;;;;;;;;5055240;28;19936;-60
2021/10/14 12:04:15;;;;;;;;;;;;;;;;;;5049119;28;19936;-60
2021/10/14 12:06:42;;;;;;;;;;;;;;;;;;5048278;28;19925;-59
2021/10/14 12:09:09;;;;;;;;;;;;;;;;;;5054376;28;20323;-59
2021/10/14 12:11:35;;;;;;;;;;;;;;;;;;5047489;28;19936;-60
2021/10/14 12:14:02;;;;;;;;;;;;;;;;;;5054096;28;19924;-59
2021/10/14 12:16:29;;;;;;;;;;;;;;;;;;5053708;28;19925;-60
2021/10/14 12:18:56;;;;;;;;;;;;;;;;;;5054239;28;19931;-60
2021/10/14 12:21:23;;;;;;;;;;;;;;;;;;5050641;28;19925;-61
2021/10/14 12:23:50;;;;;;;;;;;;;;;;;;5050965;28;20372;-60
2021/10/14 12:26:17;;;;;;;;;;;;;;;;;;5041160;28;19948;-60
2021/10/14 12:28:45;;;;;;;;;;;;;;;;;;5053907;28;19932;-59
2021/10/14 12:31:12;;;;;;;;;;;;;;;;;;5050903;28;19925;-60
2021/10/14 12:33:39;;;;;;;;;;;;;;;;;;5047965;28;19926;-59
2021/10/14 12:36:06;;;;;;;;;;;;;;;;;;5052061;28;19925;-60
2021/10/14 12:38:33;;;;;;;;;;;;;;;;;;5046316;28;19961;-61
2021/10/14 12:41:00;;;;;;;;;;;;;;;;;;5042843;28;19929;-60
2021/10/14 12:43:30;;;;;;;;;;;;;;;;;;5047270;28;19999;-60
2021/10/14 12:46:09;;;;;;;;;;;;;;;;;;5045409;28;19925;-60
2021/10/14 12:48:48;;;;;;;;;;;;;;;;;;5053971;28;19932;-60
2021/10/14 12:51:19;;;;;;;;;;;;;;;;;;5045003;28;19947;-61
2021/10/14 12:53:46;;;;;;;;;;;;;;;;;;5049503;28;19928;-61
2021/10/14 12:56:13;;;;;;;;;;;;;;;;;;5045414;28;19925;-61
2021/10/14 12:58:40;;;;;;;;;;;;;;;;;;5038366;28;19975;-61
2021/10/14 13:01:07;;;;;;;;;;;;;;;;;;5047958;28;19925;-61
2021/10/14 13:03:34;;;;;;;;;;;;;;;;;;5042383;28;19925;-60
2021/10/14 13:06:01;;;;;;;;;;;;;;;;;;5046108;28;19940;-61
2021/10/14 13:08:34;;;;;;;;;;;;;;;;;;5043578;28;19978;-60
2021/10/14 13:11:01;;;;;;;;;;;;;;;;;;5047182;28;19926;-60
2021/10/14 13:13:28;;;;;;;;;;;;;;;;;;5036619;28;19934;-61
2021/10/14 13:15:55;;;;;;;;;;;;;;;;;;5046289;28;19928;-61
2021/10/14 13:18:22;;;;;;;;;;;;;;;;;;5045711;28;19925;-60
2021/10/14 13:20:49;;;;;;;;;;;;;;;;;;5051845;28;19932;-61
2021/10/14 13:23:16;;;;;;;;;;;;;;;;;;5045398;28;19931;-60
2021/10/14 13:25:44;;;;;;;;;;;;;;;;;;5048666;28;19925;-60
2021/10/14 13:28:11;;;;;;;;;;;;;;;;;;5045309;28;19968;-60
2021/10/14 13:30:38;;;;;;;;;;;;;;;;;;5044456;28;19925;-61
2021/10/14 13:33:05;;;;;;;;;;;;;;;;;;5048446;28;20304;-60
2021/10/14 13:35:32;;;;;;;;;;;;;;;;;;5045331;28;19925;-60
2021/10/14 13:37:59;;;;;;;;;;;;;;;;;;5043218;28;20380;-60
2021/10/14 13:40:26;;;;;;;;;;;;;;;;;;5048642;28;20403;-60
2021/10/14 13:42:55;;;;;;;;;;;;;;;;;;5048603;28;19940;-59
2021/10/14 13:45:22;;;;;;;;;;;;;;;;;;5045102;28;20344;-60
2021/10/14 13:47:49;;;;;;;;;;;;;;;;;;5050623;28;19924;-59
2021/10/14 13:50:16;;;;;;;;;;;;;;;;;;5045901;28;19931;-60
2021/10/14 13:52:43;;;;;;;;;;;;;;;;;;5052616;28;20319;-59
2021/10/14 13:55:10;;;;;;;;;;;;;;;;;;5039969;28;19925;-60
2021/10/14 13:57:37;;;;;;;;;;;;;;;;;;5045137;28;19932;-60
2021/10/14 14:00:05;;;;;;;;;;;;;;;;;;5043886;28;19933;-60
2021/10/14 14:02:32;;;;;;;;;;;;;;;;;;5046170;28;19952;-60
2021/10/14 14:04:59;;;;;;;;;;;;;;;;;;5048279;28;20388;-60
2021/10/14 14:07:26;;;;;;;;;;;;;;;;;;5041291;28;19925;-60
2021/10/14 14:09:53;;;;;;;;;;;;;;;;;;5048365;28;19925;-60
2021/10/14 14:12:23;;;;;;;;;;;;;;;;;;5049436;28;19931;-60
2021/10/14 14:14:50;;;;;;;;;;;;;;;;;;5052228;28;19932;-60
2021/10/14 14:17:17;;;;;;;;;;;;;;;;;;5051031;28;19936;-60
2021/10/14 14:19:44;;;;;;;;;;;;;;;;;;5044716;28;19932;-60
2021/10/14 14:22:12;;;;;;;;;;;;;;;;;;5044156;28;19932;-60
2021/10/14 14:24:39;;;;;;;;;;;;;;;;;;5044539;28;20399;-60
2021/10/14 14:27:06;;;;;;;;;;;;;;;;;;5051827;28;20289;-60
2021/10/14 14:29:33;;;;;;;;;;;;;;;;;;5045870;28;19924;-60
2021/10/14 14:32:00;;;;;;;;;;;;;;;;;;5046654;28;19932;-59
2021/10/14 14:34:27;;;;;;;;;;;;;;;;;;5044619;28;19978;-60
2021/10/14 14:36:54;;;;;;;;;;;;;;;;;;5036392;28;20377;-60
2021/10/14 14:39:21;;;;;;;;;;;;;;;;;;5045224;28;19940;-60
2021/10/14 14:41:48;;;;;;;;;;;;;;;;;;5038607;28;19929;-60
2021/10/14 14:44:17;;;;;;;;;;;;;;;;;;5039091;28;19929;-60
2021/10/14 14:46:44;;;;;;;;;;;;;;;;;;5048357;28;19994;-60
2021/10/14 14:49:15;;;;;;;;;;;;;;;;;;5051279;28;19925;-60
2021/10/14 14:51:42;;;;;;;;;;;;;;;;;;5048286;28;19925;-60
2021/10/14 14:54:09;;;;;;;;;;;;;;;;;;5042377;28;19928;-59
2021/10/14 14:56:36;;;;;;;;;;;;;;;;;;5046753;28;19924;-60
2021/10/14 14:59:03;;;;;;;;;;;;;;;;;;5045152;28;19936;-60
2021/10/14 15:01:30;;;;;;;;;;;;;;;;;;5049086;28;19932;-60
2021/10/14 15:03:57;;;;;;;;;;;;;;;;;;5051647;28;19931;-60
2021/10/14 15:06:24;;;;;;;;;;;;;;;;;;5049298;28;20116;-60
2021/10/14 15:08:51;;;;;;;;;;;;;;;;;;5042761;28;19929;-57
2021/10/14 15:11:18;;;;;;;;;;;;;;;;;;5043602;28;20381;-59
2021/10/14 15:13:47;;;;;;;;;;;;;;;;;;5044918;28;20516;-60
2021/10/14 15:16:15;;;;;;;;;;;;;;;;;;5044715;28;19939;-60
2021/10/14 15:18:41;;;;;;;;;;;;;;;;;;5045151;28;19925;-61
2021/10/14 15:21:08;;;;;;;;;;;;;;;;;;5037089;28;19926;-60
2021/10/14 15:23:35;;;;;;;;;;;;;;;;;;5044374;28;19960;-60
2021/10/14 15:26:02;;;;;;;;;;;;;;;;;;5046137;28;19925;-60
2021/10/14 15:28:29;;;;;;;;;;;;;;;;;;5043453;28;19932;-60
2021/10/14 15:30:56;;;;;;;;;;;;;;;;;;5045196;28;20377;-60
2021/10/14 15:33:23;;;;;;;;;;;;;;;;;;5043119;28;19932;-59
2021/10/14 15:35:50;;;;;;;;;;;;;;;;;;5041515;28;19932;-60
2021/10/14 15:38:20;;;;;;;;;;;;;;;;;;5047002;28;19999;-57
2021/10/14 15:40:47;;;;;;;;;;;;;;;;;;5045025;28;19929;-59
2021/10/14 15:43:14;;;;;;;;;;;;;;;;;;5059155;22;19933;-59
2021/10/14 15:45:41;;;;;;;;;;;;;;;;;;5039999;28;19931;-61
2021/10/14 15:48:08;;;;;;;;;;;;;;;;;;5039924;28;20027;-60
2021/10/14 15:50:35;;;;;;;;;;;;;;;;;;5045552;28;19980;-60
2021/10/14 15:53:02;;;;;;;;;;;;;;;;;;5044367;28;19931;-60
2021/10/14 15:55:29;;;;;;;;;;;;;;;;;;5040373;28;19925;-60
2021/10/14 15:57:56;;;;;;;;;;;;;;;;;;5034743;28;20797;-60
2021/10/14 16:00:23;;;;;;;;;;;;;;;;;;5038995;28;19925;-60
2021/10/14 16:02:52;;;;;;;;;;;;;;;;;;5042057;28;19933;-60
2021/10/14 16:05:19;;;;;;;;;;;;;;;;;;5043307;28;20396;-60
2021/10/14 16:07:46;;;;;;;;;;;;;;;;;;5046328;28;20063;-60
2021/10/14 16:10:13;;;;;;;;;;;;;;;;;;5042604;28;19925;-60
2021/10/14 16:12:40;;;;;;;;;;;;;;;;;;5047419;28;20796;-60
2021/10/14 16:15:07;;;;;;;;;;;;;;;;;;5047231;28;19925;-58
2021/10/14 16:17:34;;;;;;;;;;;;;;;;;;5044402;28;20400;-60
2021/10/14 16:20:01;;;;;;;;;;;;;;;;;;5043255;28;19928;-60
2021/10/14 16:22:28;;;;;;;;;;;;;;;;;;5043773;28;20404;-61
2021/10/14 16:24:55;;;;;;;;;;;;;;;;;;5046512;28;19925;-61
2021/10/14 16:27:22;;;;;;;;;;;;;;;;;;5046894;28;19931;-60
2021/10/14 16:29:49;;;;;;;;;;;;;;;;;;5045184;28;19931;-61
2021/10/14 16:32:20;;;;;;;;;;;;;;;;;;5045467;28;20452;-60
2021/10/14 16:34:47;;;;;;;;;;;;;;;;;;5047257;28;19925;-60
2021/10/14 16:37:14;;;;;;;;;;;;;;;;;;5049256;28;19936;-61
2021/10/14 16:39:44;;;;;;;;;;;;;;;;;;5046321;28;20448;-61
2021/10/14 16:42:12;;;;;;;;;;;;;;;;;;5049888;28;19932;-61
2021/10/14 16:44:38;;;;;;;;;;;;;;;;;;5046699;28;19932;-61